الصفحة الرئيسية
METAR-TAF:

METAR-TAF

مطار :

مطار الأقصر الدولي

الأقصر, مصر

دائرة عرض: 25-40N, خط طول: 032-42E, ارتفاع: 93 متر

مراقبة الطقس الحالي

تاريخ ووقت الإصدار 1ساعة و 22 دقيقة قبل الساعة 04:00UTC
رياح هادئة
درجة الحرارة 9°درجة مئوية
الرطوبة 76%
ضغط 1022 hPa
الرؤية 10 كم أو أكثر
الغيوم لا تقل 1500 م ولا وجود لمزنة ركامية السحاب الأسود

METAR: HELX 140400Z 00000KT CAVOK 09/05 Q1022 NOSIG

زمن: 07:22 (05:22 UTC)

توقعات

تاريخ ووقت الإصدار 6ساعات و 22 دقيقة قبل الساعة 23:00UTC
التوقعات صالحة من14 الساعة 00 UTC إلى 15 الساعة 06 UTC
ريح 8 عقدة من الشمال الغربي
الرؤية 10 كم أو أكثر
الغيوم لا تقل 1500 م ولا وجود لمزنة ركامية السحاب الأسود

TAF: HELX 132300Z 1400/1506 32008KT CAVOK

أرصاد الطقس والتوقعات من أكثر من 4000 مطار (تقارير الطقس للمطار METAR والتنبؤ بالطقس بالمطارTAF).

المحطات المتاحة هي النقط الصفراء والحمراء على الخريطة.

حرك المؤشر فوق النقطة لمعرفة اسم المحطة.

ثم انقر لمعرفة أرصاد وتوقعات الطقس.

لتغيير الخارطة: اضغط على الأزرار الخضراء مع رمز الصليب الأسود للتكبير. على الزر الأخضر مع شرطة للتصغير، أو على الأسهم الخضراء للخرائط المجاورة.


METAR-TAF: